Portada
METAR-TAF:

METAR-TAF

Aeroports :

Pattaya-Rayong, Tailàndia

latitud: 12-38N, longitud: 101-21E, altitud: 3 m

Observació

L'informe es va fer fa 20 minuts, a les 04:30 UTC
Vent 11 kt del Est/Nord-Est, variant entre Nord/Nord-Est i Est
Temperatura 32°C
Humitat 46%
Pressió 1013 hPa
Visibilitat 10 km o més
Escasses núvols a una alçada de 2000 ft

METAR: VTBU 210430Z 06011KT 020V100 9999 FEW020 32/19 Q1013 NOSIG

Hora: 11:50 (04:50 UTC)

Pronòstic

L'informe es va fer fa 5 hores i 50 minuts, a les 23:00 UTC
Pronòstic vàlid del 21 a les 00 UTC al 21 a les 24 UTC
Vent 4 kt del Nord
Visibilitat: 7000 m
Escasses núvols a una alçada de 2000 ft
Evolucionant progressivament
l' 21 a les 03 UTC al 21 a les 05 UTC
Vent 8 kt del Sud
Visibilitat: 8000 m
Evolucionant progressivament
l' 21 a les 10 UTC al 21 a les 12 UTC
Vent 4 kt del Nord
Visibilitat: 5000 m
boirina

TAF: VTBU 202300Z 2100/2124 36004KT 7000 FEW020 BECMG 2103/2105 18008KT 8000 BECMG 2110/2112 01004KT 5000 BR

Observacions i pronòstics meteorològics de més de 4000 aeroports (METAR i TAF).

Les estacions disponibles són els punts grocs i vermells al mapa.

Posi el ratolí al punt desitjat per veure el nom de l'estació.

Feu clic per veure les observacions i els pronòstics meteorològics.

Per canviar el mapa: feu clic els botons verds amb una creu de color negre per apropar; al botó verd amb un guió per allunyar la imatge; o en les fletxes verdes per a mapes adjacents.


METAR-TAF: